Wetterdaten: Woche 05.04.21 - 11.04.21 (KW14)
Datum Zeit Temp. 2m rel. Feuchte Luftdruck Regen Wind Richtung Sonne ET UV-Index Solar Taupunkt Ben
05.04.2021 00:00 3,5 C 82 % 1015,8 hPa 0,0 mm 0,1 km/h (0 Bft) N 0,00 h 0,0 mm 0,0 UV-I 0 W/m 0,8 C 0,9 km/h (0 Bft)
05.04.2021 01:00 3,3 C 85 % 1014,6 hPa 0,0 mm 0,6 km/h (0 Bft) W-SW 0,00 h 0,0 mm 0,0 UV-I 0 W/m 1,0 C 1,8 km/h (1 Bft)
05.04.2021 02:00 4,1 C 85 % 1013,5 hPa 0,0 mm 2,7 km/h (1 Bft) W-NW 0,00 h 0,0 mm 0,0 UV-I 0 W/m 1,8 C 7,8 km/h (2 Bft)
05.04.2021 03:00 5,2 C 82 % 1012,0 hPa 0,0 mm 6,1 km/h (2 Bft) W-NW 0,00 h 0,0 mm 0,0 UV-I 0 W/m 2,3 C 15,3 km/h (3 Bft)
05.04.2021 04:00 5,8 C 79 % 1010,5 hPa 0,0 mm 10,3 km/h (2 Bft) W-NW 0,00 h 0,0 mm 0,0 UV-I 0 W/m 2,5 C 25,0 km/h (4 Bft)
05.04.2021 05:00 6,1 C 78 % 1009,2 hPa 0,0 mm 11,1 km/h (2 Bft) NW 0,00 h 0,0 mm 0,0 UV-I 0 W/m 2,5 C 25,0 km/h (4 Bft)
05.04.2021 06:00 6,3 C 79 % 1008,2 hPa 0,0 mm 20,8 km/h (4 Bft) N-NW 0,00 h 0,0 mm 0,0 UV-I 0 W/m 2,9 C 42,0 km/h (6 Bft)
05.04.2021 07:00 6,3 C 82 % 1007,7 hPa 0,0 mm 17,2 km/h (3 Bft) W-NW 0,00 h 0,0 mm 0,0 UV-I 10 W/m 3,4 C 34,6 km/h (5 Bft)
05.04.2021 08:00 6,2 C 85 % 1007,0 hPa 0,0 mm 15,4 km/h (3 Bft) N-NW 0,00 h 0,0 mm 0,0 UV-I 15 W/m 3,8 C 34,8 km/h (5 Bft)
05.04.2021 09:00 6,3 C 87 % 1006,4 hPa 0,0 mm 15,2 km/h (3 Bft) N-NW 0,00 h 0,0 mm 0,0 UV-I 29 W/m 4,4 C 34,4 km/h (5 Bft)
05.04.2021 10:00 6,2 C 87 % 1006,5 hPa 0,8 mm 9,6 km/h (2 Bft) N 0,00 h 0,0 mm 0,0 UV-I 32 W/m 4,1 C 23,3 km/h (4 Bft)
05.04.2021 11:00 4,5 C 90 % 1007,7 hPa 0,3 mm 2,6 km/h (1 Bft) N 0,00 h 0,0 mm 0,6 UV-I 72 W/m 3,0 C 10,5 km/h (2 Bft)
05.04.2021 12:00 3,3 C 87 % 1009,0 hPa 0,0 mm 2,8 km/h (1 Bft) N 0,00 h 0,0 mm 0,8 UV-I 137 W/m 1,3 C 10,4 km/h (2 Bft)
05.04.2021 13:00 2,9 C 84 % 1010,0 hPa 0,0 mm 5,1 km/h (1 Bft) N 0,00 h 0,1 mm 1,0 UV-I 190 W/m 0,4 C 16,1 km/h (3 Bft)
05.04.2021 14:00 3,2 C 79 % 1010,5 hPa 0,0 mm 3,9 km/h (1 Bft) N 0,17 h 0,1 mm 1,1 UV-I 235 W/m -0,1 C 11,7 km/h (2 Bft)
05.04.2021 15:00 3,1 C 77 % 1011,0 hPa 0,0 mm 2,8 km/h (1 Bft) O 0,50 h 0,1 mm 1,4 UV-I 448 W/m -0,5 C 8,0 km/h (2 Bft)
05.04.2021 16:00 4,8 C 65 % 1011,2 hPa 0,0 mm 4,2 km/h (1 Bft) O 1,00 h 0,2 mm 1,3 UV-I 635 W/m -1,3 C 14,4 km/h (3 Bft)
05.04.2021 17:00 4,9 C 54 % 1011,9 hPa 0,0 mm 5,1 km/h (1 Bft) O 1,00 h 0,2 mm 0,5 UV-I 457 W/m -3,6 C 15,5 km/h (3 Bft)
05.04.2021 18:00 2,9 C 72 % 1012,7 hPa 0,0 mm 7,7 km/h (2 Bft) O 0,58 h 0,2 mm 0,0 UV-I 227 W/m -1,6 C 24,4 km/h (4 Bft)
05.04.2021 19:00 2,9 C 73 % 1013,2 hPa 0,0 mm 5,4 km/h (1 Bft) N-NW 0,58 h 0,1 mm 0,0 UV-I 60 W/m -1,4 C 22,2 km/h (4 Bft)
05.04.2021 20:00 2,3 C 77 % 1013,6 hPa 0,0 mm 8,2 km/h (2 Bft) NW 0,08 h 0,0 mm 0,0 UV-I 10 W/m -1,3 C 23,7 km/h (4 Bft)
05.04.2021 21:00 1,3 C 78 % 1014,2 hPa 0,0 mm 9,5 km/h (2 Bft) NW 0,00 h 0,0 mm 0,0 UV-I 0 W/m -2,1 C 25,7 km/h (4 Bft)
05.04.2021 22:00 1,1 C 80 % 1013,8 hPa 0,0 mm 17,1 km/h (3 Bft) N-NW 0,00 h 0,0 mm 0,0 UV-I 0 W/m -1,9 C 33,7 km/h (5 Bft)
05.04.2021 23:00 0,9 C 82 % 1013,3 hPa 0,0 mm 14,3 km/h (3 Bft) NW 0,00 h 0,0 mm 0,0 UV-I 0 W/m -1,8 C 29,8 km/h (5 Bft)
06.04.2021 00:00 1,1 C 85 % 1012,8 hPa 0,0 mm 19,4 km/h (3 Bft) NW 0,00 h 0,0 mm 0,0 UV-I 0 W/m -1,2 C 40,5 km/h (6 Bft)
06.04.2021 01:00 1,2 C 89 % 1012,6 hPa 0,0 mm 22,4 km/h (4 Bft) NW 0,00 h 0,0 mm 0,0 UV-I 0 W/m -0,4 C 44,6 km/h (6 Bft)
06.04.2021 02:00 1,7 C 88 % 1012,6 hPa 0,5 mm 20,2 km/h (4 Bft) N-NW 0,00 h 0,0 mm 0,0 UV-I 0 W/m -0,1 C 40,7 km/h (6 Bft)
06.04.2021 03:00 2,0 C 87 % 1012,9 hPa 0,0 mm 12,1 km/h (2 Bft) N-NW 0,00 h 0,0 mm 0,0 UV-I 0 W/m 0,0 C 32,8 km/h (5 Bft)
06.04.2021 04:00 1,9 C 87 % 1013,1 hPa 0,3 mm 10,5 km/h (2 Bft) NW 0,00 h 0,0 mm 0,0 UV-I 0 W/m -0,1 C 30,1 km/h (5 Bft)
06.04.2021 05:00 1,5 C 88 % 1013,0 hPa 0,0 mm 12,6 km/h (3 Bft) N-NW 0,00 h 0,0 mm 0,0 UV-I 0 W/m -0,2 C 28,1 km/h (4 Bft)
06.04.2021 06:00 1,3 C 89 % 1013,0 hPa 0,0 mm 16,4 km/h (3 Bft) NW 0,00 h 0,0 mm 0,0 UV-I 0 W/m -0,3 C 30,2 km/h (5 Bft)
06.04.2021 07:00 1,2 C 87 % 1013,3 hPa 0,0 mm 14,7 km/h (3 Bft) NW 0,00 h 0,0 mm 0,0 UV-I 20 W/m -0,6 C 31,1 km/h (5 Bft)
06.04.2021 08:00 1,5 C 87 % 1013,7 hPa 0,0 mm 17,2 km/h (3 Bft) NW 0,00 h 0,0 mm 0,4 UV-I 60 W/m -0,4 C 31,8 km/h (5 Bft)
06.04.2021 09:00 2,3 C 85 % 1013,6 hPa 0,0 mm 15,4 km/h (3 Bft) N-NW 0,58 h 0,0 mm 0,7 UV-I 285 W/m 0,1 C 36,1 km/h (5 Bft)
06.04.2021 10:00 3,4 C 80 % 1013,6 hPa 0,0 mm 12,3 km/h (3 Bft) N-NW 0,67 h 0,1 mm 1,2 UV-I 428 W/m 0,3 C 31,3 km/h (5 Bft)
06.04.2021 11:00 4,2 C 76 % 1013,6 hPa 0,0 mm 10,6 km/h (2 Bft) O 0,67 h 0,2 mm 1,7 UV-I 431 W/m 0,3 C 30,2 km/h (5 Bft)
06.04.2021 12:00 4,1 C 77 % 1013,1 hPa 0,0 mm 14,8 km/h (3 Bft) N-NW 0,58 h 0,2 mm 1,7 UV-I 520 W/m 0,4 C 32,8 km/h (5 Bft)
06.04.2021 13:00 3,5 C 78 % 1012,8 hPa 0,3 mm 12,5 km/h (3 Bft) N-NW 0,17 h 0,2 mm 0,6 UV-I 144 W/m 0,1 C 31,7 km/h (5 Bft)
06.04.2021 14:00 2,5 C 89 % 1012,4 hPa 0,0 mm 4,3 km/h (1 Bft) NW 0,50 h 0,1 mm 1,7 UV-I 481 W/m 0,9 C 13,1 km/h (3 Bft)
06.04.2021 15:00 4,4 C 76 % 1011,7 hPa 0,0 mm 21,3 km/h (4 Bft) N-NW 0,50 h 0,2 mm 1,1 UV-I 408 W/m 0,4 C 42,0 km/h (6 Bft)
06.04.2021 16:00 3,1 C 81 % 1011,8 hPa 0,3 mm 16,9 km/h (3 Bft) N-NW 0,42 h 0,2 mm 0,7 UV-I 288 W/m 0,2 C 38,5 km/h (5 Bft)
06.04.2021 17:00 2,4 C 85 % 1011,7 hPa 0,3 mm 14,0 km/h (3 Bft) N-NW 0,17 h 0,1 mm 0,6 UV-I 157 W/m 0,1 C 31,7 km/h (5 Bft)
06.04.2021 18:00 2,6 C 84 % 1011,6 hPa 0,0 mm 14,8 km/h (3 Bft) N-NW 0,00 h 0,1 mm 0,0 UV-I 107 W/m 0,1 C 33,1 km/h (5 Bft)
06.04.2021 19:00 2,0 C 86 % 1011,9 hPa 0,0 mm 12,5 km/h (3 Bft) NW 0,00 h 0,1 mm 0,0 UV-I 30 W/m -0,1 C 31,3 km/h (5 Bft)
06.04.2021 20:00 1,5 C 87 % 1012,0 hPa 0,0 mm 15,7 km/h (3 Bft) NW 0,00 h 0,0 mm 0,0 UV-I 5 W/m -0,5 C 34,1 km/h (5 Bft)
06.04.2021 21:00 1,2 C 88 % 1012,4 hPa 0,0 mm 9,9 km/h (2 Bft) NW 0,00 h 0,0 mm 0,0 UV-I 0 W/m -0,6 C 25,4 km/h (4 Bft)
06.04.2021 22:00 0,5 C 91 % 1012,7 hPa 0,0 mm 3,6 km/h (1 Bft) N-NW 0,00 h 0,0 mm 0,0 UV-I 0 W/m -0,9 C 12,6 km/h (3 Bft)
06.04.2021 23:00 0,3 C 91 % 1013,1 hPa 0,0 mm 5,1 km/h (1 Bft) NW 0,00 h 0,0 mm 0,0 UV-I 0 W/m -1,0 C 17,0 km/h (3 Bft)
07.04.2021 00:00 0,2 C 91 % 1013,4 hPa 0,0 mm 5,5 km/h (1 Bft) NW 0,00 h 0,0 mm 0,0 UV-I 0 W/m -1,1 C 14,1 km/h (3 Bft)
07.04.2021 01:00 0,1 C 91 % 1013,9 hPa 0,0 mm 10,6 km/h (2 Bft) NW 0,00 h 0,0 mm 0,0 UV-I 0 W/m -1,3 C 23,5 km/h (4 Bft)
07.04.2021 02:00 0,1 C 90 % 1014,1 hPa 0,0 mm 15,7 km/h (3 Bft) N-NW 0,00 h 0,0 mm 0,0 UV-I 0 W/m -1,4 C 29,1 km/h (5 Bft)
07.04.2021 03:00 0,2 C 89 % 1014,4 hPa 0,0 mm 17,4 km/h (3 Bft) N-NW 0,00 h 0,0 mm 0,0 UV-I 0 W/m -1,4 C 33,1 km/h (5 Bft)
07.04.2021 04:00 0,4 C 88 % 1014,4 hPa 0,0 mm 20,4 km/h (4 Bft) N-NW 0,00 h 0,0 mm 0,0 UV-I 0 W/m -1,3 C 36,4 km/h (5 Bft)
07.04.2021 05:00 0,5 C 90 % 1014,4 hPa 0,0 mm 19,1 km/h (3 Bft) N-NW 0,00 h 0,0 mm 0,0 UV-I 0 W/m -1,0 C 37,6 km/h (5 Bft)
07.04.2021 06:00 0,7 C 90 % 1014,6 hPa 0,0 mm 14,4 km/h (3 Bft) N-NW 0,00 h 0,0 mm 0,0 UV-I 0 W/m -0,8 C 31,7 km/h (5 Bft)
07.04.2021 07:00 0,8 C 89 % 1014,8 hPa 0,0 mm 17,4 km/h (3 Bft) W-NW 0,00 h 0,0 mm 0,0 UV-I 12 W/m -0,8 C 36,8 km/h (5 Bft)
07.04.2021 08:00 0,9 C 90 % 1014,7 hPa 0,0 mm 18,1 km/h (3 Bft) W-NW 0,00 h 0,0 mm 0,0 UV-I 33 W/m -0,5 C 36,1 km/h (5 Bft)
07.04.2021 09:00 0,9 C 91 % 1014,5 hPa 0,0 mm 20,9 km/h (4 Bft) NW 0,00 h 0,0 mm 0,4 UV-I 89 W/m -0,4 C 44,6 km/h (6 Bft)
07.04.2021 10:00 1,1 C 91 % 1014,9 hPa 0,5 mm 23,9 km/h (4 Bft) NW 0,00 h 0,0 mm 0,8 UV-I 168 W/m -0,2 C 47,9 km/h (6 Bft)
07.04.2021 11:00 1,3 C 92 % 1015,5 hPa 1,3 mm 22,3 km/h (4 Bft) N-NW 0,00 h 0,1 mm 1,0 UV-I 179 W/m 0,2 C 45,7 km/h (6 Bft)
07.04.2021 12:00 1,8 C 93 % 1015,9 hPa 1,3 mm 25,0 km/h (4 Bft) N-NW 0,00 h 0,1 mm 1,0 UV-I 156 W/m 0,8 C 47,9 km/h (6 Bft)
07.04.2021 13:00 2,9 C 93 % 1016,8 hPa 0,5 mm 23,8 km/h (4 Bft) N-NW 0,00 h 0,1 mm 1,2 UV-I 179 W/m 1,9 C 44,6 km/h (6 Bft)
07.04.2021 14:00 3,9 C 91 % 1017,3 hPa 0,0 mm 24,6 km/h (4 Bft) NW 0,08 h 0,1 mm 1,4 UV-I 223 W/m 2,6 C 44,8 km/h (6 Bft)
07.04.2021 15:00 4,6 C 89 % 1017,7 hPa 0,8 mm 26,4 km/h (4 Bft) NW 0,58 h 0,1 mm 1,7 UV-I 334 W/m 3,0 C 51,1 km/h (7 Bft)
07.04.2021 16:00 4,5 C 88 % 1018,2 hPa 0,0 mm 15,9 km/h (3 Bft) NW 0,08 h 0,1 mm 1,1 UV-I 234 W/m 2,7 C 43,3 km/h (6 Bft)
07.04.2021 17:00 5,0 C 84 % 1018,9 hPa 0,0 mm 15,1 km/h (3 Bft) N-NW 0,42 h 0,1 mm 0,8 UV-I 260 W/m 2,5 C 42,9 km/h (6 Bft)
07.04.2021 18:00 4,5 C 81 % 1019,5 hPa 0,3 mm 8,3 km/h (2 Bft) N-NW 0,08 h 0,1 mm 0,3 UV-I 84 W/m 1,5 C 26,1 km/h (4 Bft)
07.04.2021 19:00 4,1 C 77 % 1020,0 hPa 0,0 mm 11,2 km/h (2 Bft) N-NW 0,42 h 0,1 mm 0,0 UV-I 80 W/m 0,4 C 32,2 km/h (5 Bft)
07.04.2021 20:00 3,6 C 75 % 1020,5 hPa 0,0 mm 9,4 km/h (2 Bft) N-NW 0,08 h 0,1 mm 0,0 UV-I 9 W/m -0,4 C 25,2 km/h (4 Bft)
07.04.2021 21:00 3,3 C 73 % 1021,3 hPa 0,0 mm 7,7 km/h (2 Bft) N-NW 0,00 h 0,0 mm 0,0 UV-I 0 W/m -1,0 C 24,3 km/h (4 Bft)
07.04.2021 22:00 3,0 C 79 % 1021,7 hPa 0,0 mm 6,5 km/h (2 Bft) N-NW 0,00 h 0,0 mm 0,0 UV-I 0 W/m -0,3 C 21,8 km/h (4 Bft)
07.04.2021 23:00 2,7 C 81 % 1022,0 hPa 0,0 mm 9,3 km/h (2 Bft) NW 0,00 h 0,0 mm 0,0 UV-I 0 W/m -0,2 C 19,6 km/h (3 Bft)
08.04.2021 00:00 2,7 C 83 % 1022,6 hPa 0,0 mm 9,1 km/h (2 Bft) NW 0,00 h 0,0 mm 0,0 UV-I 0 W/m -0,0 C 22,8 km/h (4 Bft)
08.04.2021 01:00 2,3 C 84 % 1022,9 hPa 0,0 mm 14,6 km/h (3 Bft) N-NW 0,00 h 0,0 mm 0,0 UV-I 0 W/m -0,2 C 28,3 km/h (4 Bft)
08.04.2021 02:00 2,1 C 85 % 1023,2 hPa 0,0 mm 16,1 km/h (3 Bft) W-NW 0,00 h 0,0 mm 0,0 UV-I 0 W/m -0,2 C 29,8 km/h (5 Bft)
08.04.2021 03:00 2,1 C 85 % 1023,4 hPa 0,0 mm 11,5 km/h (2 Bft) N-NW 0,00 h 0,0 mm 0,0 UV-I 0 W/m -0,2 C 24,1 km/h (4 Bft)
08.04.2021 04:00 2,1 C 83 % 1023,5 hPa 0,0 mm 16,6 km/h (3 Bft) NW 0,00 h 0,0 mm 0,0 UV-I 0 W/m -0,4 C 31,3 km/h (5 Bft)
08.04.2021 05:00 2,1 C 84 % 1023,6 hPa 0,0 mm 11,4 km/h (2 Bft) NW 0,00 h 0,0 mm 0,0 UV-I 0 W/m -0,3 C 21,8 km/h (4 Bft)
08.04.2021 06:00 2,0 C 84 % 1023,8 hPa 0,0 mm 6,4 km/h (2 Bft) W-NW 0,00 h 0,0 mm 0,0 UV-I 5 W/m -0,4 C 13,1 km/h (3 Bft)
08.04.2021 07:00 1,8 C 84 % 1024,1 hPa 0,0 mm 6,8 km/h (2 Bft) NW 0,08 h 0,0 mm 0,0 UV-I 31 W/m -0,6 C 12,9 km/h (3 Bft)
08.04.2021 08:00 2,3 C 80 % 1024,5 hPa 0,0 mm 7,1 km/h (2 Bft) W-SW 0,00 h 0,0 mm 0,7 UV-I 98 W/m -0,7 C 15,9 km/h (3 Bft)
08.04.2021 09:00 3,8 C 73 % 1024,9 hPa 0,0 mm 8,4 km/h (2 Bft) W-NW 0,75 h 0,1 mm 1,2 UV-I 266 W/m -0,6 C 16,7 km/h (3 Bft)
08.04.2021 10:00 5,2 C 64 % 1025,1 hPa 0,0 mm 9,8 km/h (2 Bft) NW 0,42 h 0,1 mm 1,7 UV-I 337 W/m -1,0 C 20,4 km/h (4 Bft)
08.04.2021 11:00 5,9 C 54 % 1025,2 hPa 0,0 mm 9,7 km/h (2 Bft) W-NW 0,50 h 0,1 mm 2,1 UV-I 344 W/m -2,7 C 20,0 km/h (4 Bft)
08.04.2021 12:00 6,4 C 48 % 1025,1 hPa 0,0 mm 10,6 km/h (2 Bft) N-NW 0,08 h 0,2 mm 2,0 UV-I 327 W/m -4,0 C 23,1 km/h (4 Bft)
08.04.2021 13:00 7,6 C 46 % 1024,8 hPa 0,0 mm 11,1 km/h (2 Bft) N-NW 0,83 h 0,2 mm 4,1 UV-I 688 W/m -3,3 C 25,7 km/h (4 Bft)
08.04.2021 14:00 9,0 C 42 % 1024,3 hPa 0,0 mm 11,1 km/h (2 Bft) NW 1,00 h 0,3 mm 2,9 UV-I 767 W/m -3,3 C 23,8 km/h (4 Bft)
08.04.2021 15:00 9,4 C 41 % 1023,7 hPa 0,0 mm 10,4 km/h (2 Bft) N-NW 0,83 h 0,4 mm 1,9 UV-I 705 W/m -3,3 C 25,3 km/h (4 Bft)
08.04.2021 16:00 10,0 C 39 % 1023,1 hPa 0,0 mm 9,4 km/h (2 Bft) NW 1,00 h 0,3 mm 1,2 UV-I 675 W/m -3,2 C 21,5 km/h (4 Bft)
08.04.2021 17:00 9,6 C 41 % 1022,4 hPa 0,0 mm 7,9 km/h (2 Bft) W 1,00 h 0,3 mm 0,4 UV-I 427 W/m -3,2 C 18,5 km/h (3 Bft)
08.04.2021 18:00 8,8 C 43 % 1021,9 hPa 0,0 mm 5,7 km/h (1 Bft) W-NW 0,83 h 0,2 mm 0,0 UV-I 232 W/m -3,2 C 13,5 km/h (3 Bft)
08.04.2021 19:00 8,2 C 46 % 1021,4 hPa 0,0 mm 2,3 km/h (1 Bft) W 0,50 h 0,1 mm 0,0 UV-I 79 W/m -2,6 C 7,2 km/h (2 Bft)
08.04.2021 20:00 7,2 C 53 % 1020,8 hPa 0,0 mm 0,4 km/h (0 Bft) SW 0,17 h 0,1 mm 0,0 UV-I 10 W/m -1,7 C 2,4 km/h (1 Bft)
08.04.2021 21:00 6,0 C 58 % 1020,5 hPa 0,0 mm 1,3 km/h (1 Bft) SW 0,00 h 0,0 mm 0,0 UV-I 0 W/m -1,8 C 3,9 km/h (1 Bft)
08.04.2021 22:00 5,2 C 61 % 1020,2 hPa 0,0 mm 1,1 km/h (1 Bft) SW 0,00 h 0,0 mm 0,0 UV-I 0 W/m -1,7 C 3,5 km/h (1 Bft)
08.04.2021 23:00 3,9 C 67 % 1019,7 hPa 0,0 mm 1,4 km/h (1 Bft) W 0,00 h 0,0 mm 0,0 UV-I 0 W/m -1,6 C 3,9 km/h (1 Bft)
09.04.2021 00:00 3,7 C 69 % 1019,2 hPa 0,0 mm 3,1 km/h (1 Bft) W-SW 0,00 h 0,0 mm 0,0 UV-I 0 W/m -1,5 C 7,8 km/h (2 Bft)
09.04.2021 01:00 3,3 C 72 % 1018,5 hPa 0,0 mm 4,4 km/h (1 Bft) S-SW 0,00 h 0,0 mm 0,0 UV-I 0 W/m -1,3 C 10,4 km/h (2 Bft)
09.04.2021 02:00 3,1 C 73 % 1017,9 hPa 0,0 mm 3,4 km/h (1 Bft) S 0,00 h 0,0 mm 0,0 UV-I 0 W/m -1,3 C 8,0 km/h (2 Bft)
09.04.2021 03:00 2,4 C 78 % 1017,4 hPa 0,0 mm 2,4 km/h (1 Bft) S 0,00 h 0,0 mm 0,0 UV-I 0 W/m -1,1 C 5,7 km/h (1 Bft)
09.04.2021 04:00 2,2 C 80 % 1016,7 hPa 0,0 mm 2,6 km/h (1 Bft) S 0,00 h 0,0 mm 0,0 UV-I 0 W/m -0,9 C 7,3 km/h (2 Bft)
09.04.2021 05:00 3,1 C 75 % 1016,2 hPa 0,0 mm 4,9 km/h (1 Bft) S-SW 0,00 h 0,0 mm 0,0 UV-I 0 W/m -1,0 C 11,5 km/h (2 Bft)
09.04.2021 06:00 3,5 C 73 % 1015,7 hPa 0,0 mm 4,4 km/h (1 Bft) S-SW 0,00 h 0,0 mm 0,0 UV-I 0 W/m -0,9 C 10,6 km/h (2 Bft)
09.04.2021 07:00 4,0 C 72 % 1015,5 hPa 0,0 mm 7,0 km/h (2 Bft) S-SW 0,00 h 0,0 mm 0,0 UV-I 31 W/m -0,6 C 15,7 km/h (3 Bft)
09.04.2021 08:00 5,4 C 68 % 1015,3 hPa 0,0 mm 5,7 km/h (1 Bft) S-SW 0,00 h 0,0 mm 0,8 UV-I 101 W/m 0,0 C 12,9 km/h (3 Bft)
09.04.2021 09:00 7,1 C 64 % 1015,1 hPa 0,0 mm 5,9 km/h (2 Bft) S-SW 0,00 h 0,1 mm 1,3 UV-I 200 W/m 0,8 C 13,9 km/h (3 Bft)
09.04.2021 10:00 9,3 C 59 % 1014,9 hPa 0,0 mm 5,2 km/h (1 Bft) SW 0,83 h 0,1 mm 2,4 UV-I 413 W/m 1,6 C 11,8 km/h (2 Bft)
09.04.2021 11:00 11,5 C 51 % 1014,8 hPa 0,0 mm 8,6 km/h (2 Bft) NW 1,00 h 0,2 mm 3,6 UV-I 593 W/m 1,7 C 18,5 km/h (3 Bft)
09.04.2021 12:00 12,1 C 50 % 1014,6 hPa 0,0 mm 9,8 km/h (2 Bft) NW 0,42 h 0,3 mm 2,8 UV-I 406 W/m 1,9 C 20,7 km/h (4 Bft)
09.04.2021 13:00 12,6 C 50 % 1014,1 hPa 0,0 mm 11,9 km/h (2 Bft) N-NW 0,67 h 0,2 mm 2,7 UV-I 457 W/m 2,3 C 25,2 km/h (4 Bft)
09.04.2021 14:00 13,1 C 50 % 1013,7 hPa 0,0 mm 10,7 km/h (2 Bft) W-NW 0,58 h 0,3 mm 2,5 UV-I 554 W/m 2,8 C 25,0 km/h (4 Bft)
09.04.2021 15:00 14,3 C 47 % 1013,3 hPa 0,0 mm 10,0 km/h (2 Bft) NW 0,83 h 0,3 mm 2,0 UV-I 591 W/m 3,2 C 26,5 km/h (4 Bft)
09.04.2021 16:00 15,1 C 46 % 1012,7 hPa 0,0 mm 6,3 km/h (2 Bft) W-NW 1,00 h 0,3 mm 1,2 UV-I 606 W/m 3,4 C 17,4 km/h (3 Bft)
09.04.2021 17:00 15,0 C 45 % 1012,4 hPa 0,0 mm 6,1 km/h (2 Bft) O 0,75 h 0,3 mm 0,5 UV-I 389 W/m 3,2 C 18,5 km/h (3 Bft)
09.04.2021 18:00 13,5 C 50 % 1012,4 hPa 0,0 mm 0,4 km/h (0 Bft) O 0,00 h 0,2 mm 0,0 UV-I 97 W/m 3,3 C 2,6 km/h (1 Bft)
09.04.2021 19:00 12,7 C 53 % 1012,0 hPa 0,0 mm 0,0 km/h (0 Bft) N 0,50 h 0,1 mm 0,0 UV-I 71 W/m 3,4 C 0,4 km/h (0 Bft)
09.04.2021 20:00 11,1 C 62 % 1012,0 hPa 0,0 mm 0,0 km/h (0 Bft) N 0,00 h 0,0 mm 0,0 UV-I 9 W/m 4,0 C 0,0 km/h (0 Bft)
09.04.2021 21:00 9,9 C 65 % 1012,2 hPa 0,0 mm 0,0 km/h (0 Bft) N 0,00 h 0,0 mm 0,0 UV-I 0 W/m 3,7 C 0,0 km/h (0 Bft)
09.04.2021 22:00 9,9 C 66 % 1012,4 hPa 0,0 mm 0,3 km/h (0 Bft) O 0,00 h 0,0 mm 0,0 UV-I 0 W/m 3,8 C 1,1 km/h (1 Bft)
09.04.2021 23:00 9,7 C 72 % 1012,3 hPa 0,0 mm 0,7 km/h (0 Bft) O 0,00 h 0,0 mm 0,0 UV-I 0 W/m 4,9 C 2,4 km/h (1 Bft)
10.04.2021 00:00 9,5 C 78 % 1012,0 hPa 0,8 mm 1,4 km/h (1 Bft) O 0,00 h 0,0 mm 0,0 UV-I 0 W/m 5,8 C 4,2 km/h (1 Bft)
10.04.2021 01:00 8,6 C 86 % 1011,7 hPa 1,5 mm 1,6 km/h (1 Bft) O 0,00 h 0,0 mm 0,0 UV-I 0 W/m 6,4 C 4,6 km/h (1 Bft)
10.04.2021 02:00 8,1 C 89 % 1011,5 hPa 0,3 mm 1,0 km/h (0 Bft) O 0,00 h 0,0 mm 0,0 UV-I 0 W/m 6,4 C 4,5 km/h (1 Bft)
10.04.2021 03:00 7,7 C 90 % 1011,4 hPa 0,0 mm 0,0 km/h (0 Bft) N 0,00 h 0,0 mm 0,0 UV-I 0 W/m 6,2 C 0,0 km/h (0 Bft)
10.04.2021 04:00 7,5 C 91 % 1011,4 hPa 0,0 mm 0,0 km/h (0 Bft) N 0,00 h 0,0 mm 0,0 UV-I 0 W/m 6,1 C 0,0 km/h (0 Bft)
10.04.2021 05:00 7,0 C 91 % 1011,7 hPa 0,0 mm 0,0 km/h (0 Bft) N 0,00 h 0,0 mm 0,0 UV-I 0 W/m 5,7 C 0,0 km/h (0 Bft)
10.04.2021 06:00 6,9 C 93 % 1012,1 hPa 0,0 mm 0,0 km/h (0 Bft) N 0,00 h 0,0 mm 0,0 UV-I 0 W/m 5,8 C 0,0 km/h (0 Bft)
10.04.2021 07:00 7,0 C 93 % 1012,5 hPa 0,0 mm 0,0 km/h (0 Bft) N 0,00 h 0,0 mm 0,0 UV-I 15 W/m 6,0 C 0,2 km/h (0 Bft)
10.04.2021 08:00 7,4 C 94 % 1012,8 hPa 0,0 mm 0,1 km/h (0 Bft) N 0,00 h 0,0 mm 0,6 UV-I 55 W/m 6,5 C 0,6 km/h (0 Bft)
10.04.2021 09:00 8,2 C 94 % 1013,1 hPa 0,0 mm 1,0 km/h (0 Bft) O 0,08 h 0,0 mm 1,1 UV-I 190 W/m 7,2 C 4,8 km/h (1 Bft)
10.04.2021 10:00 9,1 C 91 % 1013,3 hPa 0,0 mm 3,6 km/h (1 Bft) O 0,17 h 0,1 mm 1,4 UV-I 247 W/m 7,8 C 8,5 km/h (2 Bft)
10.04.2021 11:00 9,8 C 87 % 1013,3 hPa 0,0 mm 3,1 km/h (1 Bft) O 0,00 h 0,1 mm 1,2 UV-I 270 W/m 7,7 C 8,2 km/h (2 Bft)
10.04.2021 12:00 10,4 C 84 % 1013,1 hPa 0,0 mm 3,0 km/h (1 Bft) O 0,00 h 0,1 mm 0,9 UV-I 221 W/m 7,9 C 7,8 km/h (2 Bft)
10.04.2021 13:00 10,2 C 87 % 1012,6 hPa 0,3 mm 4,3 km/h (1 Bft) O 0,00 h 0,1 mm 0,6 UV-I 136 W/m 8,1 C 10,6 km/h (2 Bft)
10.04.2021 14:00 10,0 C 89 % 1011,8 hPa 0,5 mm 2,8 km/h (1 Bft) O 0,00 h 0,1 mm 0,4 UV-I 86 W/m 8,1 C 7,1 km/h (2 Bft)
10.04.2021 15:00 9,8 C 91 % 1011,2 hPa 0,3 mm 5,0 km/h (1 Bft) O 0,00 h 0,0 mm 0,7 UV-I 107 W/m 8,3 C 13,1 km/h (3 Bft)
10.04.2021 16:00 9,8 C 92 % 1010,3 hPa 0,0 mm 4,6 km/h (1 Bft) O 0,00 h 0,1 mm 0,0 UV-I 45 W/m 8,5 C 11,5 km/h (2 Bft)
10.04.2021 17:00 9,7 C 93 % 1009,3 hPa 0,3 mm 4,9 km/h (1 Bft) O 0,00 h 0,0 mm 0,3 UV-I 52 W/m 8,7 C 13,1 km/h (3 Bft)
10.04.2021 18:00 10,0 C 93 % 1008,4 hPa 0,0 mm 3,9 km/h (1 Bft) O 0,00 h 0,0 mm 0,0 UV-I 28 W/m 8,9 C 10,7 km/h (2 Bft)
10.04.2021 19:00 10,2 C 93 % 1007,9 hPa 0,0 mm 4,9 km/h (1 Bft) O 0,00 h 0,0 mm 0,0 UV-I 23 W/m 9,1 C 12,8 km/h (3 Bft)
10.04.2021 20:00 10,3 C 91 % 1007,7 hPa 0,0 mm 7,0 km/h (2 Bft) O 0,00 h 0,0 mm 0,0 UV-I 2 W/m 8,9 C 15,4 km/h (3 Bft)
10.04.2021 21:00 10,7 C 86 % 1007,8 hPa 0,0 mm 8,0 km/h (2 Bft) O 0,00 h 0,0 mm 0,0 UV-I 0 W/m 8,5 C 18,5 km/h (3 Bft)
10.04.2021 22:00 10,6 C 86 % 1007,6 hPa 0,0 mm 6,1 km/h (2 Bft) O 0,00 h 0,0 mm 0,0 UV-I 0 W/m 8,4 C 14,6 km/h (3 Bft)
10.04.2021 23:00 10,6 C 85 % 1007,4 hPa 0,0 mm 6,9 km/h (2 Bft) O 0,00 h 0,0 mm 0,0 UV-I 0 W/m 8,2 C 16,1 km/h (3 Bft)
11.04.2021 00:00 10,4 C 87 % 1007,2 hPa 0,3 mm 4,9 km/h (1 Bft) O 0,00 h 0,0 mm 0,0 UV-I 0 W/m 8,3 C 11,3 km/h (2 Bft)
11.04.2021 01:00 10,2 C 89 % 1007,0 hPa 0,0 mm 3,3 km/h (1 Bft) O 0,00 h 0,0 mm 0,0 UV-I 0 W/m 8,4 C 7,8 km/h (2 Bft)
11.04.2021 02:00 9,9 C 90 % 1006,5 hPa 0,0 mm 2,4 km/h (1 Bft) O 0,00 h 0,0 mm 0,0 UV-I 0 W/m 8,4 C 5,9 km/h (2 Bft)
11.04.2021 03:00 10,0 C 90 % 1006,1 hPa 0,0 mm 2,6 km/h (1 Bft) O 0,00 h 0,0 mm 0,0 UV-I 0 W/m 8,4 C 6,5 km/h (2 Bft)
11.04.2021 04:00 10,1 C 91 % 1006,1 hPa 1,0 mm 3,1 km/h (1 Bft) O 0,00 h 0,0 mm 0,0 UV-I 0 W/m 8,7 C 9,5 km/h (2 Bft)
11.04.2021 05:00 8,3 C 91 % 1006,8 hPa 0,8 mm 2,3 km/h (1 Bft) O 0,00 h 0,0 mm 0,0 UV-I 0 W/m 6,9 C 8,9 km/h (2 Bft)
11.04.2021 06:00 6,2 C 93 % 1007,4 hPa 0,5 mm 0,4 km/h (0 Bft) O 0,00 h 0,0 mm 0,0 UV-I 0 W/m 5,2 C 3,1 km/h (1 Bft)
11.04.2021 07:00 5,1 C 93 % 1008,3 hPa 0,0 mm 1,7 km/h (1 Bft) O 0,00 h 0,0 mm 0,0 UV-I 10 W/m 4,1 C 8,7 km/h (2 Bft)
11.04.2021 08:00 4,5 C 94 % 1009,3 hPa 0,3 mm 1,2 km/h (1 Bft) O 0,00 h 0,0 mm 0,0 UV-I 22 W/m 3,6 C 6,8 km/h (2 Bft)
11.04.2021 09:00 4,1 C 94 % 1009,9 hPa 0,3 mm 1,7 km/h (1 Bft) O 0,00 h 0,0 mm 0,4 UV-I 45 W/m 3,2 C 10,0 km/h (2 Bft)
11.04.2021 10:00 4,0 C 94 % 1010,7 hPa 0,8 mm 0,8 km/h (0 Bft) O 0,00 h 0,0 mm 0,3 UV-I 60 W/m 3,1 C 5,5 km/h (1 Bft)
11.04.2021 11:00 3,8 C 94 % 1011,4 hPa 1,0 mm 0,0 km/h (0 Bft) N 0,00 h 0,0 mm 0,6 UV-I 87 W/m 2,9 C 0,4 km/h (0 Bft)
11.04.2021 12:00 4,0 C 94 % 1012,1 hPa 1,0 mm 0,2 km/h (0 Bft) N 0,00 h 0,0 mm 0,7 UV-I 93 W/m 3,1 C 1,8 km/h (1 Bft)
11.04.2021 13:00 3,9 C 94 % 1012,9 hPa 0,8 mm 0,4 km/h (0 Bft) O 0,00 h 0,0 mm 0,8 UV-I 136 W/m 3,0 C 2,9 km/h (1 Bft)
11.04.2021 14:00 4,3 C 93 % 1013,5 hPa 0,3 mm 0,5 km/h (0 Bft) NW 0,00 h 0,1 mm 1,1 UV-I 199 W/m 3,4 C 3,3 km/h (1 Bft)
11.04.2021 15:00 4,8 C 91 % 1014,0 hPa 0,3 mm 0,2 km/h (0 Bft) N 0,00 h 0,1 mm 0,8 UV-I 133 W/m 3,5 C 0,7 km/h (0 Bft)
11.04.2021 16:00 4,9 C 91 % 1014,7 hPa 0,0 mm 0,2 km/h (0 Bft) N 0,00 h 0,1 mm 0,6 UV-I 104 W/m 3,6 C 1,6 km/h (1 Bft)
11.04.2021 17:00 5,2 C 91 % 1015,0 hPa 0,0 mm 0,1 km/h (0 Bft) N 0,00 h 0,0 mm 0,5 UV-I 70 W/m 3,8 C 1,5 km/h (1 Bft)
11.04.2021 18:00 5,0 C 89 % 1015,7 hPa 0,0 mm 0,2 km/h (0 Bft) O 0,00 h 0,0 mm 0,0 UV-I 28 W/m 3,3 C 1,3 km/h (1 Bft)
11.04.2021 19:00 5,0 C 90 % 1016,6 hPa 0,0 mm 0,2 km/h (0 Bft) NW 0,00 h 0,0 mm 0,0 UV-I 33 W/m 3,5 C 1,1 km/h (1 Bft)
11.04.2021 20:00 5,1 C 89 % 1017,4 hPa 0,0 mm 0,1 km/h (0 Bft) N 0,17 h 0,0 mm 0,0 UV-I 13 W/m 3,4 C 2,2 km/h (1 Bft)
11.04.2021 21:00 4,9 C 89 % 1018,4 hPa 0,0 mm 0,0 km/h (0 Bft) N 0,00 h 0,0 mm 0,0 UV-I 0 W/m 3,2 C 0,6 km/h (0 Bft)
11.04.2021 22:00 4,3 C 87 % 1018,9 hPa 0,0 mm 0,0 km/h (0 Bft) N 0,00 h 0,0 mm 0,0 UV-I 0 W/m 2,3 C 1,1 km/h (1 Bft)
11.04.2021 23:00 3,5 C 87 % 1019,9 hPa 0,0 mm 0,0 km/h (0 Bft) N 0,00 h 0,0 mm 0,0 UV-I 0 W/m 1,5 C 0,2 km/h (0 Bft)
Min-Datum _ 07.04.21 08.04.21 11.04.21 - 05.04.21 - - - - - 05.04.21 05.04.21
_ Min-Zeit 01:05 15:55 04:30 - 00:00 - - - - - 17:10 00:00
Minimum _ -0,1 C 37 % 1005,8 hPa - 0,0 km/h (0 Bft) - - - - - -5,2 C 0,0 km/h (0 Bft)
Max-Datum _ 09.04.21 07.04.21 08.04.21 10.04.21 06.04.21 - 09.04.21 08.04.21 08.04.21 08.04.21 10.04.21 06.04.21
_ Max-Zeit 17:10 12:30 10:50 01:05 15:00 - 11:11 15:00 13:40 13:35 19:15 00:20
Maximum _ 15,4 C 94 % 1025,3 hPa 1,5 mm 33,9 km/h
N-NW (5 Bft)
- 0,10 h 0,4 mm 5,6 UV-I 1000 W/m 9,1 C 64,4 km/h
N-NW (8 Bft)
Durchschnitt _ 5,3 C 80 % 1014,4 hPa #18,0 mm 7,9 km/h (2 Bft) N-NW #24:55 h #8,686 mm 1,2 UV-I 202 W/m 1,8 C 18,3 km/h (3 Bft)



© 1998 - 2021 www.pulheimwetter.de